createdAt,value
2023-11-14T00:01:25.761Z,46.13
2023-11-14T00:03:52.789Z,37.72
2023-11-14T00:06:19.701Z,43.95
2023-11-14T00:08:46.869Z,51.83
2023-11-14T00:11:13.883Z,50.83
2023-11-14T00:13:40.760Z,45.72
2023-11-14T00:16:08.200Z,45.58
2023-11-14T00:18:35.085Z,49.83
2023-11-14T00:21:02.000Z,46.97
2023-11-14T00:23:28.808Z,47.58
2023-11-14T00:25:55.677Z,46.47
2023-11-14T00:28:22.668Z,46.10
2023-11-14T00:30:49.596Z,45.15
2023-11-14T00:33:16.492Z,28.63
2023-11-14T00:35:44.705Z,46.25
2023-11-14T00:38:11.720Z,38.40
2023-11-14T00:40:40.355Z,41.35
2023-11-14T00:43:07.307Z,38.58
2023-11-14T00:45:34.280Z,51.10
2023-11-14T00:48:01.514Z,38.78
2023-11-14T00:50:28.378Z,41.17
2023-11-14T00:52:55.235Z,49.25
2023-11-14T00:55:22.227Z,48.38
2023-11-14T00:57:49.178Z,49.45
2023-11-14T01:00:16.533Z,41.92
2023-11-14T01:02:43.523Z,47.15
2023-11-14T01:05:10.657Z,33.17
2023-11-14T01:07:37.556Z,40.25
2023-11-14T01:10:05.868Z,49.83
2023-11-14T01:12:33.762Z,45.63
2023-11-14T01:15:01.932Z,46.10
2023-11-14T01:17:28.769Z,49.75
2023-11-14T01:19:55.647Z,37.42
2023-11-14T01:22:22.715Z,42.08
2023-11-14T01:24:49.629Z,37.85
2023-11-14T01:27:17.028Z,38.83
2023-11-14T01:29:47.730Z,46.03
2023-11-14T01:32:14.563Z,41.95
2023-11-14T01:34:44.058Z,33.17
2023-11-14T01:37:11.037Z,37.67
2023-11-14T01:39:37.842Z,40.53
2023-11-14T01:42:04.922Z,44.00
2023-11-14T01:44:31.680Z,40.17
2023-11-14T01:46:58.719Z,48.88
2023-11-14T01:49:28.782Z,54.88
2023-11-14T01:51:56.143Z,41.42
2023-11-14T01:54:23.064Z,31.42
2023-11-14T01:56:50.786Z,47.50
2023-11-14T01:59:18.882Z,52.08
2023-11-14T02:01:45.698Z,48.15
2023-11-14T02:04:17.149Z,43.05
2023-11-14T02:06:44.556Z,33.08
2023-11-14T02:09:12.188Z,52.60
2023-11-14T02:11:39.098Z,48.15
2023-11-14T02:14:09.282Z,46.78
2023-11-14T02:16:56.674Z,40.13
2023-11-14T02:19:24.346Z,40.53
2023-11-14T02:21:52.821Z,38.35
2023-11-14T02:24:21.837Z,40.10
2023-11-14T02:26:50.858Z,43.60
2023-11-14T02:29:20.425Z,44.78
2023-11-14T02:31:51.888Z,44.70
2023-11-14T02:34:19.143Z,36.33
2023-11-14T02:36:45.979Z,40.28
2023-11-14T02:39:14.405Z,45.28
2023-11-14T02:41:42.516Z,38.00
2023-11-14T02:44:09.833Z,41.67
2023-11-14T02:46:37.144Z,41.30
2023-11-14T02:49:19.600Z,51.17
2023-11-14T02:51:46.565Z,26.58
2023-11-14T02:54:13.972Z,42.53
2023-11-14T02:56:40.874Z,49.15
2023-11-14T02:59:07.901Z,43.47
2023-11-14T03:01:34.767Z,34.53
2023-11-14T03:04:01.640Z,45.90
2023-11-14T03:06:28.503Z,39.42
2023-11-14T03:08:55.311Z,52.20
2023-11-14T03:11:22.088Z,36.22
2023-11-14T03:13:49.614Z,39.88
2023-11-14T03:16:16.530Z,46.70
2023-11-14T03:18:43.550Z,43.83
2023-11-14T03:21:11.027Z,32.38
2023-11-14T03:23:37.824Z,47.10
2023-11-14T03:26:04.769Z,42.42
2023-11-14T03:28:32.268Z,49.90
2023-11-14T03:31:00.487Z,32.55
2023-11-14T03:33:27.440Z,45.08
2023-11-14T03:35:54.298Z,46.33
2023-11-14T03:38:21.328Z,42.65
2023-11-14T03:40:48.123Z,36.47
2023-11-14T03:43:17.094Z,42.08
2023-11-14T03:45:43.913Z,42.28
2023-11-14T03:48:11.314Z,31.63
2023-11-14T03:50:38.309Z,42.10
2023-11-14T03:53:05.515Z,45.78
2023-11-14T03:55:32.312Z,45.17
2023-11-14T03:57:59.033Z,36.63
2023-11-14T04:00:25.802Z,49.53
2023-11-14T04:02:52.549Z,38.45
2023-11-14T04:05:19.353Z,36.15
2023-11-14T04:07:46.308Z,33.33
2023-11-14T04:10:14.095Z,42.35
2023-11-14T04:12:40.979Z,29.77
2023-11-14T04:15:08.594Z,34.47
2023-11-14T04:17:35.790Z,35.97
2023-11-14T04:20:04.299Z,40.47
2023-11-14T04:22:33.733Z,36.83
2023-11-14T04:25:00.643Z,34.88
2023-11-14T04:27:27.514Z,31.77
2023-11-14T04:29:54.490Z,38.85
2023-11-14T04:32:21.631Z,26.33
2023-11-14T04:34:48.820Z,40.38
2023-11-14T04:37:15.703Z,37.03
2023-11-14T04:39:44.024Z,36.05
2023-11-14T04:42:12.279Z,37.55
2023-11-14T04:44:39.235Z,27.98
2023-11-14T04:47:07.305Z,32.53
2023-11-14T04:49:34.383Z,34.17
2023-11-14T04:52:01.403Z,38.78
2023-11-14T04:54:28.152Z,42.45
2023-11-14T04:56:55.229Z,35.53
2023-11-14T04:59:24.790Z,30.33
2023-11-14T05:01:51.640Z,38.53
2023-11-14T05:04:18.389Z,35.00
2023-11-14T05:06:47.886Z,42.65
2023-11-14T05:09:16.691Z,29.65
2023-11-14T05:11:44.625Z,35.80
2023-11-14T05:14:11.416Z,29.83
2023-11-14T05:16:42.647Z,35.33
2023-11-14T05:19:12.702Z,34.13
2023-11-14T05:21:40.057Z,40.20
2023-11-14T05:24:10.453Z,40.40
2023-11-14T05:26:37.319Z,30.65
2023-11-14T05:29:04.785Z,29.50
2023-11-14T05:31:34.641Z,46.65
2023-11-14T05:34:01.575Z,34.67
2023-11-14T05:36:29.174Z,50.97
2023-11-14T05:38:56.206Z,36.63
2023-11-14T05:41:22.935Z,32.78
2023-11-14T05:43:49.929Z,27.17
2023-11-14T05:46:16.835Z,50.97
2023-11-14T05:48:43.658Z,37.90
2023-11-14T05:51:13.684Z,38.75
2023-11-14T05:53:41.152Z,35.83
2023-11-14T05:56:08.187Z,39.80
2023-11-14T05:58:35.047Z,46.97
2023-11-14T06:01:02.647Z,37.28
2023-11-14T06:03:29.569Z,36.22
2023-11-14T06:05:57.622Z,38.38
2023-11-14T06:08:30.939Z,34.20
2023-11-14T06:10:59.021Z,40.90
2023-11-14T06:13:25.831Z,40.17
2023-11-14T06:15:53.449Z,35.83
2023-11-14T06:18:20.429Z,28.83
2023-11-14T06:20:47.206Z,44.53
2023-11-14T06:23:14.025Z,45.83
2023-11-14T06:25:40.890Z,43.33
2023-11-14T06:28:07.716Z,40.30
2023-11-14T06:30:36.926Z,48.33
2023-11-14T06:33:04.502Z,38.30
2023-11-14T06:35:31.434Z,30.95
2023-11-14T06:37:58.491Z,36.38
2023-11-14T06:40:25.357Z,37.47
2023-11-14T06:42:52.231Z,20.35
2023-11-14T06:45:19.039Z,38.90
2023-11-14T06:47:46.360Z,43.92
2023-11-14T06:50:22.553Z,41.17
2023-11-14T06:52:57.614Z,33.55
2023-11-14T06:55:24.353Z,42.22
2023-11-14T06:57:51.567Z,30.98
2023-11-14T07:00:18.856Z,33.38
2023-11-14T07:02:45.717Z,44.42
2023-11-14T07:05:12.696Z,39.47
2023-11-14T07:07:40.239Z,39.42
2023-11-14T07:10:08.085Z,30.88
2023-11-14T07:12:34.829Z,45.60
2023-11-14T07:15:01.618Z,54.65
2023-11-14T07:17:28.448Z,40.10
2023-11-14T07:19:56.077Z,45.20
2023-11-14T07:22:22.958Z,39.95
2023-11-14T07:24:49.715Z,54.85
2023-11-14T07:27:19.572Z,43.58
2023-11-14T07:29:47.209Z,39.80
2023-11-14T07:32:13.968Z,38.83
2023-11-14T07:34:40.790Z,44.67
2023-11-14T07:37:08.302Z,31.48
2023-11-14T07:39:35.083Z,44.83
2023-11-14T07:42:01.965Z,48.72
2023-11-14T07:44:28.744Z,41.90
2023-11-14T07:47:04.909Z,37.47
2023-11-14T07:49:40.058Z,38.92
2023-11-14T07:52:08.140Z,41.25
2023-11-14T07:54:34.997Z,51.88
2023-11-14T07:57:03.685Z,47.38
2023-11-14T07:59:31.461Z,44.22
2023-11-14T08:01:58.589Z,50.28
2023-11-14T08:04:28.944Z,38.70
2023-11-14T08:06:55.777Z,39.42
2023-11-14T08:09:22.618Z,41.13
2023-11-14T08:11:49.645Z,46.53
2023-11-14T08:14:16.736Z,41.40
2023-11-14T08:16:43.724Z,46.03
2023-11-14T08:19:12.116Z,37.97
2023-11-14T08:21:38.925Z,40.05
2023-11-14T08:24:08.602Z,42.90
2023-11-14T08:26:35.388Z,54.67
2023-11-14T08:29:02.237Z,52.80
2023-11-14T08:31:29.238Z,37.13
2023-11-14T08:33:56.497Z,53.70
2023-11-14T08:36:23.376Z,41.88
2023-11-14T08:38:50.178Z,55.03
2023-11-14T08:41:17.734Z,49.08
2023-11-14T08:43:44.512Z,43.65
2023-11-14T08:46:12.508Z,46.90
2023-11-14T08:48:39.382Z,46.00
2023-11-14T08:51:06.173Z,43.63
2023-11-14T08:53:33.186Z,54.03
2023-11-14T08:56:00.159Z,45.28
2023-11-14T08:58:26.954Z,49.60
2023-11-14T09:00:56.363Z,52.35
2023-11-14T09:03:23.886Z,46.40
2023-11-14T09:05:50.810Z,60.75
2023-11-14T09:08:20.489Z,46.00
2023-11-14T09:10:49.466Z,50.15
2023-11-14T09:13:18.946Z,51.83
2023-11-14T09:15:45.924Z,54.95
2023-11-14T09:18:12.853Z,52.65
2023-11-14T09:20:39.669Z,43.60
2023-11-14T09:23:06.693Z,45.72
2023-11-14T09:25:34.223Z,46.83
2023-11-14T09:28:02.285Z,48.25
2023-11-14T09:30:29.382Z,56.47
2023-11-14T09:32:56.214Z,49.28
2023-11-14T09:35:23.062Z,49.40
2023-11-14T09:37:50.873Z,55.63
2023-11-14T09:40:22.193Z,48.67
2023-11-14T09:42:50.875Z,48.63
2023-11-14T09:45:21.802Z,44.83
2023-11-14T09:47:50.838Z,49.33
2023-11-14T09:50:18.890Z,52.60
2023-11-14T09:52:46.550Z,51.58
2023-11-14T09:55:13.410Z,54.97
2023-11-14T09:57:40.816Z,47.22
2023-11-14T10:00:12.744Z,45.55
2023-11-14T10:02:41.616Z,49.53
2023-11-14T10:05:14.652Z,42.40
2023-11-14T10:07:44.526Z,52.63
2023-11-14T10:10:13.145Z,37.05
2023-11-14T10:12:40.872Z,42.72
2023-11-14T10:15:11.402Z,55.92
2023-11-14T10:17:47.134Z,47.45
2023-11-14T10:20:15.280Z,57.75
2023-11-14T10:22:48.905Z,43.58
2023-11-14T10:25:26.101Z,50.55
2023-11-14T10:28:01.178Z,41.05
2023-11-14T10:30:48.489Z,42.28
2023-11-14T10:33:16.723Z,45.72
2023-11-14T10:35:46.246Z,50.83
2023-11-14T10:38:23.746Z,43.97
2023-11-14T10:40:53.515Z,50.38
2023-11-14T10:43:50.034Z,46.58
2023-11-14T10:46:16.840Z,41.15
2023-11-14T10:48:43.702Z,44.00
2023-11-14T10:51:12.946Z,41.30
2023-11-14T10:53:40.906Z,49.45
2023-11-14T10:56:09.343Z,40.95
2023-11-14T10:58:38.394Z,41.20
2023-11-14T11:01:07.428Z,42.15
2023-11-14T11:03:35.397Z,42.13
2023-11-14T11:06:04.198Z,32.20
2023-11-14T11:08:30.997Z,46.90
2023-11-14T11:10:58.266Z,41.97
2023-11-14T11:13:28.086Z,40.33
2023-11-14T11:15:56.668Z,48.63
2023-11-14T11:18:37.139Z,52.22
2023-11-14T11:21:14.914Z,41.33
2023-11-14T11:24:10.627Z,37.65
2023-11-14T11:27:26.314Z,48.38
2023-11-14T11:30:00.542Z,52.35
2023-11-14T11:32:36.073Z,41.65
2023-11-14T11:35:19.531Z,33.78
2023-11-14T11:37:57.423Z,32.22
2023-11-14T11:40:29.245Z,38.88
2023-11-14T11:42:58.598Z,45.42
2023-11-14T11:45:32.934Z,45.45
2023-11-14T11:48:02.182Z,44.78
2023-11-14T11:50:30.520Z,42.15
2023-11-14T11:53:07.205Z,40.03
2023-11-14T11:55:36.339Z,41.15
2023-11-14T11:58:09.552Z,40.78
2023-11-14T12:00:36.920Z,42.55
2023-11-14T12:03:05.818Z,30.60
2023-11-14T12:05:34.539Z,42.35
2023-11-14T12:08:05.570Z,54.03
2023-11-14T12:10:32.536Z,40.13
2023-11-14T12:12:59.553Z,37.03
2023-11-14T12:15:28.072Z,38.58
2023-11-14T12:17:56.102Z,45.15
2023-11-14T12:20:25.594Z,47.63
2023-11-14T12:22:53.921Z,36.72
2023-11-14T12:25:22.377Z,38.50
2023-11-14T12:28:01.440Z,42.20
2023-11-14T12:30:29.511Z,46.53
2023-11-14T12:33:08.464Z,49.10
2023-11-14T12:35:50.141Z,32.65
2023-11-14T12:38:28.128Z,32.38
2023-11-14T12:41:18.401Z,38.70
2023-11-14T12:43:48.314Z,27.48
2023-11-14T12:46:25.756Z,31.10
2023-11-14T12:49:10.718Z,31.90
2023-11-14T12:51:39.794Z,27.10
2023-11-14T12:54:06.965Z,29.08
2023-11-14T12:56:34.324Z,30.45
2023-11-14T12:59:01.379Z,35.10
2023-11-14T13:01:29.184Z,28.98
2023-11-14T13:03:56.272Z,31.33
2023-11-14T13:06:23.542Z,28.70
2023-11-14T13:08:50.653Z,36.47
2023-11-14T13:11:17.496Z,23.90
2023-11-14T13:13:44.384Z,26.05
2023-11-14T13:16:11.302Z,28.40
2023-11-14T13:18:38.370Z,28.70
2023-11-14T13:21:05.573Z,32.85
2023-11-14T13:23:32.481Z,30.63
2023-11-14T13:26:07.474Z,30.77
2023-11-14T13:28:35.397Z,35.05
2023-11-14T13:31:05.858Z,36.83
2023-11-14T13:33:32.887Z,28.70
2023-11-14T13:35:59.999Z,29.42
2023-11-14T13:38:27.058Z,25.70
2023-11-14T13:40:57.777Z,21.38
2023-11-14T13:43:24.629Z,31.40
2023-11-14T13:45:51.899Z,25.90
2023-11-14T13:48:19.685Z,21.58
2023-11-14T13:50:47.769Z,22.20
2023-11-14T13:53:15.204Z,22.27
2023-11-14T13:55:42.799Z,22.13
2023-11-14T13:58:09.666Z,19.30
2023-11-14T14:00:36.727Z,20.83
2023-11-14T14:03:03.667Z,18.45
2023-11-14T14:05:30.558Z,22.83
2023-11-14T14:07:57.551Z,19.67
2023-11-14T14:10:26.530Z,18.25
2023-11-14T14:12:53.349Z,24.20
2023-11-14T14:15:20.275Z,18.65
2023-11-14T14:17:48.526Z,23.08
2023-11-14T14:20:17.734Z,12.32
2023-11-14T14:22:51.497Z,13.80
2023-11-14T14:25:19.317Z,12.88
2023-11-14T14:27:46.221Z,15.48
2023-11-14T14:30:15.399Z,22.67
2023-11-14T14:32:42.773Z,13.85
2023-11-14T14:35:10.149Z,15.88
2023-11-14T14:37:38.537Z,14.68
2023-11-14T14:40:07.339Z,14.65
2023-11-14T14:42:41.191Z,17.15
2023-11-14T14:45:09.501Z,18.23
2023-11-14T14:47:40.574Z,16.25
2023-11-14T14:50:09.812Z,11.35
2023-11-14T14:52:43.025Z,14.93
2023-11-14T14:55:11.231Z,10.50
2023-11-14T14:57:38.259Z,13.48
2023-11-14T15:00:15.271Z,10.27
2023-11-14T15:02:43.131Z,10.55
2023-11-14T15:05:11.523Z,10.35
2023-11-14T15:07:41.261Z,10.27
2023-11-14T15:10:09.450Z,13.55
2023-11-14T15:12:36.239Z,17.38
2023-11-14T15:15:09.027Z,15.35
2023-11-14T15:17:36.293Z,15.80
2023-11-14T15:20:09.606Z,15.65
2023-11-14T15:22:39.402Z,16.83
2023-11-14T15:25:07.742Z,18.98
2023-11-14T15:27:35.062Z,11.05
2023-11-14T15:30:04.018Z,11.18
2023-11-14T15:32:31.953Z,17.60
2023-11-14T15:34:59.735Z,9.65
2023-11-14T15:37:26.730Z,9.55
2023-11-14T15:39:53.502Z,14.93
2023-11-14T15:42:21.223Z,16.30
2023-11-14T15:44:48.841Z,10.65
2023-11-14T15:47:16.003Z,15.25
2023-11-14T15:49:42.812Z,12.13
2023-11-14T15:52:09.621Z,9.25
2023-11-14T15:54:38.348Z,13.60
2023-11-14T15:57:06.404Z,5.07
2023-11-14T15:59:34.324Z,93.38
2023-11-14T16:02:05.091Z,89.13
2023-11-14T16:04:32.774Z,17.83
2023-11-14T16:06:59.893Z,59.50
2023-11-14T16:09:27.378Z,235.50
2023-11-14T16:11:54.869Z,502.85
2023-11-14T16:14:24.903Z,169.32
2023-11-14T16:16:52.051Z,39.63
2023-11-14T16:19:22.111Z,15.10
2023-11-14T16:21:49.549Z,16.60
2023-11-14T16:24:16.589Z,71.20
2023-11-14T16:26:43.328Z,363.60
2023-11-14T16:29:10.226Z,266.92
2023-11-14T16:31:38.479Z,25.10
2023-11-14T16:34:06.362Z,22.10
2023-11-14T16:36:36.737Z,13.30
2023-11-14T16:39:03.806Z,11.73
2023-11-14T16:41:32.175Z,8.73
2023-11-14T16:43:59.023Z,9.52
2023-11-14T16:46:26.324Z,7.28
2023-11-14T16:48:53.173Z,8.57
2023-11-14T16:51:21.910Z,14.18
2023-11-14T16:53:49.605Z,13.82
2023-11-14T16:56:16.770Z,9.45
2023-11-14T16:58:43.608Z,10.60
2023-11-14T17:01:10.536Z,10.82
2023-11-14T17:03:38.318Z,9.27
2023-11-14T17:06:37.312Z,7.57
2023-11-14T17:09:04.428Z,11.15
2023-11-14T17:11:31.442Z,12.68
2023-11-14T17:13:58.355Z,9.50
2023-11-14T17:16:25.277Z,7.38
2023-11-14T17:18:52.369Z,6.60
2023-11-14T17:21:24.922Z,8.90
2023-11-14T17:23:52.416Z,8.65
2023-11-14T17:26:21.817Z,6.82
2023-11-14T17:28:48.945Z,8.55
2023-11-14T17:31:15.877Z,8.55
2023-11-14T17:33:42.700Z,11.18
2023-11-14T17:36:09.754Z,11.43
2023-11-14T17:38:36.717Z,12.57
2023-11-14T17:41:05.112Z,9.90
2023-11-14T17:43:32.334Z,13.40
2023-11-14T17:45:59.162Z,18.17
2023-11-14T17:48:26.124Z,10.23
2023-11-14T17:50:54.042Z,18.88
2023-11-14T17:53:20.931Z,14.43
2023-11-14T17:55:48.199Z,12.52
2023-11-14T17:58:15.073Z,13.52
2023-11-14T18:00:42.224Z,17.58
2023-11-14T18:03:09.378Z,14.68
2023-11-14T18:05:36.494Z,16.90
2023-11-14T18:08:08.081Z,17.40
2023-11-14T18:10:35.881Z,15.77
2023-11-14T18:13:03.767Z,16.33
2023-11-14T18:15:33.135Z,16.10
2023-11-14T18:18:00.655Z,13.90
2023-11-14T18:20:30.568Z,18.85
2023-11-14T18:22:57.684Z,14.88
2023-11-14T18:25:24.613Z,17.17
2023-11-14T18:27:51.429Z,19.55
2023-11-14T18:30:18.448Z,18.52
2023-11-14T18:32:51.206Z,18.67
2023-11-14T18:35:19.417Z,16.75
2023-11-14T18:37:46.484Z,14.23
2023-11-14T18:40:14.647Z,17.73
2023-11-14T18:42:43.709Z,19.40
2023-11-14T18:45:11.716Z,14.85
2023-11-14T18:47:39.891Z,21.65
2023-11-14T18:50:09.867Z,16.42
2023-11-14T18:52:37.164Z,10.90
2023-11-14T18:55:05.169Z,11.55
2023-11-14T18:57:32.360Z,12.77
2023-11-14T18:59:59.677Z,10.65
2023-11-14T19:02:29.083Z,8.82
2023-11-14T19:04:56.119Z,11.13
2023-11-14T19:07:27.717Z,10.23
2023-11-14T19:09:55.812Z,13.13
2023-11-14T19:12:24.366Z,15.70
2023-11-14T19:14:53.056Z,11.40
2023-11-14T19:17:20.891Z,17.55
2023-11-14T19:19:48.183Z,15.90
2023-11-14T19:22:41.708Z,19.52
2023-11-14T19:27:31.878Z,18.33
2023-11-14T19:29:58.909Z,15.98
2023-11-14T19:32:26.143Z,15.07
2023-11-14T19:34:53.287Z,12.82
2023-11-14T19:37:20.390Z,16.73
2023-11-14T19:39:47.334Z,14.27
2023-11-14T19:42:16.658Z,16.95
2023-11-14T19:44:44.571Z,18.30
2023-11-14T19:47:11.448Z,22.42
2023-11-14T19:49:44.986Z,31.05
2023-11-14T19:52:14.332Z,25.00
2023-11-14T19:54:41.643Z,20.25
2023-11-14T19:57:09.330Z,28.63
2023-11-14T19:59:36.956Z,29.70
2023-11-14T20:02:04.699Z,26.77
2023-11-14T20:04:53.532Z,28.88
2023-11-14T20:10:49.807Z,25.35
2023-11-14T20:13:19.630Z,20.27
2023-11-14T20:16:00.786Z,23.23
2023-11-14T20:18:35.138Z,21.30
2023-11-14T20:21:02.423Z,28.15
2023-11-14T20:23:29.384Z,22.48
2023-11-14T20:25:56.466Z,23.90
2023-11-14T20:28:26.476Z,28.55
2023-11-14T20:30:53.398Z,25.98
2023-11-14T20:33:22.849Z,33.38
2023-11-14T20:35:50.304Z,29.35
2023-11-14T20:38:17.179Z,26.20
2023-11-14T20:40:44.115Z,31.65
2023-11-14T20:43:11.800Z,25.75
2023-11-14T20:45:38.546Z,28.15
2023-11-14T20:48:05.914Z,32.97
2023-11-14T20:50:32.838Z,27.52
2023-11-14T20:53:00.803Z,29.23
2023-11-14T20:55:27.855Z,25.02
2023-11-14T20:57:57.385Z,33.10
2023-11-14T21:00:34.471Z,28.40
2023-11-14T21:03:01.694Z,22.20
2023-11-14T21:05:28.887Z,25.10
2023-11-14T21:07:55.642Z,20.67
2023-11-14T21:10:22.535Z,21.98
2023-11-14T21:12:49.346Z,26.73
2023-11-14T21:15:16.477Z,28.88
2023-11-14T21:17:50.585Z,34.33
2023-11-14T21:20:21.131Z,31.95
2023-11-14T21:22:48.364Z,22.30
2023-11-14T21:25:15.621Z,23.55
2023-11-14T21:27:42.609Z,29.60
2023-11-14T21:30:10.444Z,38.13
2023-11-14T21:32:40.388Z,32.60
2023-11-14T21:35:09.393Z,22.48
2023-11-14T21:37:37.288Z,31.50
2023-11-14T21:40:04.481Z,26.75
2023-11-14T21:42:31.372Z,25.45
2023-11-14T21:45:00.283Z,31.05
2023-11-14T21:47:28.277Z,29.95
2023-11-14T21:49:55.908Z,23.40
2023-11-14T21:52:22.699Z,19.92
2023-11-14T21:54:49.390Z,20.00
2023-11-14T21:57:16.145Z,20.77
2023-11-14T21:59:42.985Z,20.08
2023-11-14T22:02:09.801Z,14.27
2023-11-14T22:04:36.557Z,18.20
2023-11-14T22:07:03.582Z,13.07
2023-11-14T22:09:31.397Z,13.93
2023-11-14T22:11:58.266Z,10.88
2023-11-14T22:14:25.167Z,16.50
2023-11-14T22:16:51.998Z,15.18
2023-11-14T22:19:18.854Z,15.50
2023-11-14T22:21:45.661Z,9.77
2023-11-14T22:24:12.687Z,9.50
2023-11-14T22:26:39.576Z,14.80
2023-11-14T22:29:06.555Z,10.25
2023-11-14T22:31:33.526Z,12.25
2023-11-14T22:34:00.422Z,12.50
2023-11-14T22:36:27.176Z,7.20
2023-11-14T22:38:53.938Z,8.75
2023-11-14T22:41:23.766Z,10.70
2023-11-14T22:43:53.678Z,7.25
2023-11-14T22:46:21.303Z,8.77
2023-11-14T22:48:48.702Z,11.85
2023-11-14T22:51:15.514Z,12.70
2023-11-14T22:53:42.320Z,10.65
2023-11-14T22:56:20.592Z,19.42
2023-11-14T22:58:47.952Z,16.70
2023-11-14T23:01:15.709Z,13.98
2023-11-14T23:03:44.034Z,13.85
2023-11-14T23:06:17.174Z,16.75
2023-11-14T23:08:45.075Z,16.88
2023-11-14T23:11:12.462Z,18.23
2023-11-14T23:13:40.465Z,18.17
2023-11-14T23:16:09.882Z,20.35
2023-11-14T23:18:39.651Z,20.58
2023-11-14T23:21:12.749Z,19.17
2023-11-14T23:23:39.652Z,23.70
2023-11-14T23:26:11.535Z,18.77
2023-11-14T23:28:38.509Z,18.17
2023-11-14T23:31:05.538Z,12.60
2023-11-14T23:33:32.337Z,16.27
2023-11-14T23:35:59.092Z,14.80
2023-11-14T23:38:25.981Z,18.33
2023-11-14T23:40:52.836Z,17.73
2023-11-14T23:43:19.812Z,15.75
2023-11-14T23:45:49.390Z,15.68
2023-11-14T23:48:16.985Z,15.52
2023-11-14T23:50:44.779Z,17.38
2023-11-14T23:53:12.182Z,9.18
2023-11-14T23:55:40.523Z,15.35
2023-11-14T23:58:08.382Z,18.45
